createdAt,value
2023-03-18T00:00:44.918Z,61.55
2023-03-18T00:03:12.063Z,61.21
2023-03-18T00:05:38.958Z,61.40
2023-03-18T00:08:06.670Z,61.72
2023-03-18T00:10:35.164Z,61.79
2023-03-18T00:13:07.017Z,61.35
2023-03-18T00:15:33.696Z,61.73
2023-03-18T00:18:00.243Z,62.27
2023-03-18T00:20:38.707Z,62.08
2023-03-18T00:23:09.150Z,61.74
2023-03-18T00:25:37.455Z,61.41
2023-03-18T00:28:05.549Z,61.75
2023-03-18T00:30:33.067Z,61.51
2023-03-18T00:33:00.293Z,62.19
2023-03-18T00:35:35.488Z,61.87
2023-03-18T00:38:04.078Z,62.16
2023-03-18T00:40:47.328Z,62.33
2023-03-18T00:43:14.302Z,62.51
2023-03-18T00:45:41.454Z,62.97
2023-03-18T00:48:08.791Z,62.53
2023-03-18T00:50:36.930Z,62.12
2023-03-18T00:53:06.229Z,62.51
2023-03-18T00:55:35.224Z,62.30
2023-03-18T00:58:03.046Z,62.62
2023-03-18T01:00:29.871Z,62.81
2023-03-18T01:02:56.603Z,62.77
2023-03-18T01:05:23.236Z,63.28
2023-03-18T01:07:52.269Z,63.56
2023-03-18T01:10:19.733Z,63.27
2023-03-18T01:12:49.307Z,63.38
2023-03-18T01:15:19.841Z,63.05
2023-03-18T01:17:49.402Z,63.75
2023-03-18T01:20:18.188Z,63.67
2023-03-18T01:22:44.990Z,63.65
2023-03-18T01:25:13.595Z,64.30
2023-03-18T01:27:40.671Z,63.91
2023-03-18T01:30:11.523Z,64.09
2023-03-18T01:32:38.173Z,64.38
2023-03-18T01:35:05.927Z,64.04
2023-03-18T01:37:33.456Z,64.57
2023-03-18T01:40:00.844Z,64.17
2023-03-18T01:42:27.386Z,64.92
2023-03-18T01:45:19.720Z,64.85
2023-03-18T01:47:46.610Z,65.41
2023-03-18T01:50:17.139Z,65.08
2023-03-18T01:52:45.139Z,65.65
2023-03-18T01:55:19.238Z,66.15
2023-03-18T01:57:46.932Z,66.23
2023-03-18T02:00:16.416Z,65.94
2023-03-18T02:02:45.621Z,66.27
2023-03-18T02:05:15.446Z,66.19
2023-03-18T02:07:43.401Z,66.32
2023-03-18T02:10:14.527Z,66.48
2023-03-18T02:12:46.914Z,66.63
2023-03-18T02:15:16.618Z,67.03
2023-03-18T02:17:48.157Z,67.28
2023-03-18T02:20:45.926Z,67.90
2023-03-18T02:23:38.955Z,67.96
2023-03-18T02:26:20.995Z,68.23
2023-03-18T02:28:51.005Z,68.40
2023-03-18T02:31:19.841Z,68.94
2023-03-18T02:33:47.632Z,68.90
2023-03-18T02:36:28.353Z,68.79
2023-03-18T02:38:56.231Z,69.45
2023-03-18T02:41:27.193Z,69.52
2023-03-18T02:43:54.342Z,69.43
2023-03-18T02:46:38.344Z,69.21
2023-03-18T02:49:07.836Z,69.48
2023-03-18T02:51:37.051Z,69.28
2023-03-18T02:54:15.987Z,69.48
2023-03-18T02:56:44.030Z,69.40
2023-03-18T02:59:11.272Z,69.58
2023-03-18T03:01:38.911Z,69.70
2023-03-18T03:04:09.095Z,70.73
2023-03-18T03:06:36.695Z,70.71
2023-03-18T03:09:04.988Z,70.82
2023-03-18T03:11:31.735Z,71.34
2023-03-18T03:13:58.324Z,71.65
2023-03-18T03:16:28.830Z,71.65
2023-03-18T03:18:55.575Z,72.34
2023-03-18T03:21:22.357Z,72.21
2023-03-18T03:23:49.313Z,72.27
2023-03-18T03:26:16.659Z,72.61
2023-03-18T03:28:44.149Z,72.54
2023-03-18T03:31:11.100Z,73.48
2023-03-18T03:33:41.457Z,73.44
2023-03-18T03:36:10.699Z,73.60
2023-03-18T03:38:37.236Z,73.65
2023-03-18T03:41:03.756Z,73.28
2023-03-18T03:43:34.005Z,73.43
2023-03-18T03:46:00.435Z,73.79
2023-03-18T03:48:26.892Z,73.89
2023-03-18T03:50:53.712Z,74.29
2023-03-18T03:53:20.764Z,74.52
2023-03-18T03:55:47.185Z,75.08
2023-03-18T03:58:16.881Z,75.35
2023-03-18T04:00:43.541Z,75.18
2023-03-18T04:03:10.588Z,75.99
2023-03-18T04:05:37.364Z,76.01
2023-03-18T04:08:04.262Z,76.29
2023-03-18T04:10:31.137Z,76.12
2023-03-18T04:13:00.029Z,76.15
2023-03-18T04:15:27.737Z,76.40
2023-03-18T04:17:54.730Z,76.54
2023-03-18T04:20:21.514Z,76.79
2023-03-18T04:22:48.357Z,76.88
2023-03-18T04:25:15.186Z,76.39
2023-03-18T04:27:44.316Z,76.46
2023-03-18T04:30:12.326Z,76.74
2023-03-18T04:32:38.879Z,77.10
2023-03-18T04:35:06.187Z,77.16
2023-03-18T04:37:37.059Z,76.95
2023-03-18T04:40:07.497Z,77.35
2023-03-18T04:42:34.064Z,77.85
2023-03-18T04:45:00.521Z,77.83
2023-03-18T04:47:28.018Z,77.56
2023-03-18T04:49:54.952Z,77.55
2023-03-18T04:52:21.596Z,78.48
2023-03-18T04:54:50.309Z,78.39
2023-03-18T04:57:17.244Z,78.71
2023-03-18T04:59:44.387Z,78.09
2023-03-18T05:02:11.065Z,78.31
2023-03-18T05:04:38.078Z,78.78
2023-03-18T05:07:07.131Z,78.83
2023-03-18T05:09:36.203Z,78.93
2023-03-18T05:12:02.643Z,79.19
2023-03-18T05:14:29.174Z,79.17
2023-03-18T05:16:55.682Z,79.78
2023-03-18T05:19:22.607Z,80.01
2023-03-18T05:21:54.313Z,79.81
2023-03-18T05:24:20.864Z,79.52
2023-03-18T05:26:47.966Z,79.19
2023-03-18T05:29:14.725Z,79.79
2023-03-18T05:31:41.234Z,80.28
2023-03-18T05:34:08.658Z,80.03
2023-03-18T05:36:42.657Z,79.76
2023-03-18T05:39:09.112Z,79.76
2023-03-18T05:41:35.593Z,79.72
2023-03-18T05:44:02.063Z,79.25
2023-03-18T05:46:29.052Z,79.64
2023-03-18T05:49:00.257Z,79.19
2023-03-18T05:51:26.724Z,79.81
2023-03-18T05:53:53.323Z,79.15
2023-03-18T05:56:20.277Z,79.10
2023-03-18T05:58:46.796Z,78.81
2023-03-18T06:01:14.802Z,78.38
2023-03-18T06:03:43.604Z,78.57
2023-03-18T06:06:10.076Z,79.30
2023-03-18T06:08:36.631Z,79.61
2023-03-18T06:11:03.992Z,79.45
2023-03-18T06:13:30.893Z,79.89
2023-03-18T06:16:05.788Z,78.97
2023-03-18T06:18:32.227Z,78.98
2023-03-18T06:20:59.217Z,78.99
2023-03-18T06:23:25.752Z,79.23
2023-03-18T06:25:52.528Z,79.38
2023-03-18T06:28:19.238Z,79.35
2023-03-18T06:30:48.289Z,79.56
2023-03-18T06:33:15.366Z,79.04
2023-03-18T06:35:41.905Z,77.86
2023-03-18T06:38:10.668Z,78.54
2023-03-18T06:40:37.746Z,78.94
2023-03-18T06:43:08.336Z,78.44
2023-03-18T06:45:35.199Z,78.67
2023-03-18T06:48:01.851Z,78.46
2023-03-18T06:50:28.462Z,78.55
2023-03-18T06:52:55.038Z,78.34
2023-03-18T06:55:21.830Z,77.94
2023-03-18T06:57:51.767Z,77.65
2023-03-18T07:00:18.816Z,77.41
2023-03-18T07:02:45.876Z,77.73
2023-03-18T07:05:12.936Z,78.24
2023-03-18T07:07:40.193Z,77.36
2023-03-18T07:10:16.878Z,77.99
2023-03-18T07:12:43.435Z,77.67
2023-03-18T07:15:11.624Z,77.57
2023-03-18T07:17:38.313Z,76.62
2023-03-18T07:20:05.560Z,76.27
2023-03-18T07:22:33.310Z,76.12
2023-03-18T07:24:59.753Z,75.11
2023-03-18T07:27:26.186Z,75.05
2023-03-18T07:29:52.640Z,74.67
2023-03-18T07:32:19.838Z,73.92
2023-03-18T07:34:48.056Z,73.79
2023-03-18T07:37:14.944Z,72.83
2023-03-18T07:39:46.934Z,72.59
2023-03-18T07:42:13.434Z,71.76
2023-03-18T07:44:44.829Z,71.90
2023-03-18T07:47:11.995Z,71.72
2023-03-18T07:49:38.424Z,71.05
2023-03-18T07:52:05.044Z,71.19
2023-03-18T07:54:31.462Z,71.50
2023-03-18T07:56:58.185Z,71.38
2023-03-18T07:59:24.652Z,70.68
2023-03-18T08:01:51.134Z,70.12
2023-03-18T08:04:17.950Z,69.05
2023-03-18T08:06:45.010Z,68.51
2023-03-18T08:09:13.873Z,68.04
2023-03-18T08:11:40.338Z,67.74
2023-03-18T08:14:07.299Z,69.43
2023-03-18T08:16:33.840Z,71.04
2023-03-18T08:19:00.382Z,70.74
2023-03-18T08:21:26.808Z,71.34
2023-03-18T08:23:53.292Z,71.28
2023-03-18T08:26:20.305Z,71.58
2023-03-18T08:28:46.828Z,72.46
2023-03-18T08:31:14.370Z,71.94
2023-03-18T08:33:41.548Z,71.38
2023-03-18T08:36:08.650Z,72.47
2023-03-18T08:38:35.139Z,72.20
2023-03-18T08:41:01.770Z,72.43
2023-03-18T08:43:28.417Z,72.20
2023-03-18T08:45:55.047Z,71.67
2023-03-18T08:48:23.062Z,71.82
2023-03-18T08:50:49.717Z,72.01
2023-03-18T08:53:18.737Z,72.11
2023-03-18T08:55:46.645Z,72.04
2023-03-18T08:58:13.187Z,72.37
2023-03-18T09:00:41.798Z,72.20
2023-03-18T09:03:11.295Z,72.13
2023-03-18T09:05:38.585Z,71.40
2023-03-18T09:08:05.768Z,69.86
2023-03-18T09:10:33.276Z,68.47
2023-03-18T09:13:01.022Z,66.94
2023-03-18T09:15:27.660Z,65.19
2023-03-18T09:18:10.466Z,66.47
2023-03-18T09:20:38.962Z,64.03
2023-03-18T09:23:05.978Z,61.99
2023-03-18T09:25:35.389Z,61.59
2023-03-18T09:28:02.218Z,60.84
2023-03-18T09:30:28.935Z,61.40
2023-03-18T09:33:04.140Z,60.61
2023-03-18T09:35:31.095Z,60.42
2023-03-18T09:37:57.747Z,59.79
2023-03-18T09:40:27.406Z,58.64
2023-03-18T09:42:59.102Z,57.51
2023-03-18T09:45:36.058Z,57.97
2023-03-18T09:48:39.988Z,57.52
2023-03-18T09:51:33.240Z,58.36
2023-03-18T09:54:05.623Z,58.34
2023-03-18T09:56:35.965Z,57.71
2023-03-18T09:59:21.580Z,58.05
2023-03-18T10:01:54.625Z,57.46
2023-03-18T10:04:27.822Z,56.49
2023-03-18T10:07:12.810Z,56.04
2023-03-18T10:09:46.529Z,56.54
2023-03-18T10:12:36.607Z,55.86
2023-03-18T10:15:29.386Z,55.59
2023-03-18T10:18:22.138Z,55.40
2023-03-18T10:21:17.806Z,56.88
2023-03-18T10:24:00.731Z,57.03
2023-03-18T10:26:34.891Z,57.73
2023-03-18T10:29:32.056Z,56.98
2023-03-18T10:32:08.312Z,56.41
2023-03-18T10:35:04.055Z,55.53
2023-03-18T10:37:47.166Z,57.22
2023-03-18T10:40:18.957Z,57.89
2023-03-18T10:42:46.362Z,57.57
2023-03-18T10:45:25.911Z,56.86
2023-03-18T10:48:05.837Z,57.22
2023-03-18T10:50:37.401Z,58.14
2023-03-18T10:53:22.666Z,59.12
2023-03-18T10:55:59.382Z,61.10
2023-03-18T10:58:35.558Z,58.54
2023-03-18T11:01:02.392Z,58.30
2023-03-18T11:03:33.120Z,58.51
2023-03-18T11:06:03.987Z,59.01
2023-03-18T11:08:40.137Z,59.51
2023-03-18T11:11:34.549Z,58.97
2023-03-18T11:14:04.153Z,59.99
2023-03-18T11:16:40.273Z,59.71
2023-03-18T11:19:33.173Z,59.48
2023-03-18T11:22:13.778Z,60.25
2023-03-18T11:24:43.849Z,58.34
2023-03-18T11:27:16.202Z,58.63
2023-03-18T11:30:11.167Z,57.37
2023-03-18T11:32:51.956Z,55.39
2023-03-18T11:35:22.376Z,54.98
2023-03-18T11:37:50.039Z,53.92
2023-03-18T11:40:25.857Z,53.76
2023-03-18T11:43:01.859Z,53.12
2023-03-18T11:45:40.627Z,53.56
2023-03-18T11:48:15.152Z,52.62
2023-03-18T11:50:56.063Z,53.31
2023-03-18T11:53:44.392Z,51.88
2023-03-18T11:56:22.093Z,52.38
2023-03-18T11:59:06.436Z,52.30
2023-03-18T12:02:02.038Z,51.94
2023-03-18T12:05:08.601Z,52.78
2023-03-18T12:07:55.958Z,53.01
2023-03-18T12:10:36.177Z,52.96
2023-03-18T12:13:21.349Z,52.91
2023-03-18T12:16:07.341Z,52.83
2023-03-18T12:19:06.178Z,53.65
2023-03-18T12:22:05.838Z,52.90
2023-03-18T12:25:06.070Z,51.74
2023-03-18T12:27:59.042Z,51.66
2023-03-18T12:31:02.514Z,51.93
2023-03-18T12:33:50.998Z,54.51
2023-03-18T12:36:31.228Z,55.55
2023-03-18T12:39:30.615Z,57.16
2023-03-18T12:42:10.749Z,56.94
2023-03-18T12:44:57.624Z,57.19
2023-03-18T12:47:48.076Z,55.90
2023-03-18T12:50:28.416Z,56.12
2023-03-18T12:53:08.815Z,56.44
2023-03-18T12:55:42.136Z,55.79
2023-03-18T12:58:27.789Z,55.05
2023-03-18T13:01:06.868Z,54.23
2023-03-18T13:03:36.324Z,54.58
2023-03-18T13:06:24.635Z,54.30
2023-03-18T13:09:16.879Z,55.41
2023-03-18T13:12:05.348Z,55.64
2023-03-18T13:14:44.728Z,54.81
2023-03-18T13:17:18.124Z,54.94
2023-03-18T13:19:45.319Z,55.41
2023-03-18T13:22:33.706Z,55.82
2023-03-18T13:25:03.681Z,54.80
2023-03-18T13:27:48.567Z,56.33
2023-03-18T13:30:34.596Z,55.89
2023-03-18T13:33:50.633Z,55.80
2023-03-18T13:36:52.031Z,55.71
2023-03-18T13:39:58.803Z,55.65
2023-03-18T13:42:41.812Z,56.65
2023-03-18T13:45:26.522Z,55.58
2023-03-18T13:48:01.548Z,55.83
2023-03-18T13:50:32.403Z,55.80
2023-03-18T13:53:01.583Z,56.83
2023-03-18T13:55:45.164Z,56.85
2023-03-18T13:58:41.068Z,56.48
2023-03-18T14:01:35.941Z,56.60
2023-03-18T14:04:45.936Z,57.09
2023-03-18T14:07:18.468Z,57.74
2023-03-18T14:10:19.705Z,58.12
2023-03-18T14:12:48.434Z,57.95
2023-03-18T14:15:15.014Z,57.53
2023-03-18T14:17:48.554Z,57.69
2023-03-18T14:20:14.959Z,57.23
2023-03-18T14:22:42.643Z,57.86
2023-03-18T14:25:18.175Z,57.03
2023-03-18T14:27:47.444Z,57.45
2023-03-18T14:30:32.416Z,58.59
2023-03-18T14:33:03.542Z,58.54
2023-03-18T14:35:57.032Z,59.74
2023-03-18T14:38:28.223Z,58.96
2023-03-18T14:40:56.979Z,58.00
2023-03-18T14:43:45.958Z,57.61
2023-03-18T14:46:19.042Z,58.82
2023-03-18T14:48:54.881Z,58.10
2023-03-18T14:51:23.721Z,58.97
2023-03-18T14:53:58.460Z,58.21
2023-03-18T14:56:33.869Z,59.70
2023-03-18T14:59:01.058Z,58.49
2023-03-18T15:01:41.922Z,59.57
2023-03-18T15:04:17.041Z,60.68
2023-03-18T15:06:44.062Z,61.16
2023-03-18T15:09:22.106Z,61.26
2023-03-18T15:11:52.188Z,62.23
2023-03-18T15:14:23.994Z,62.84
2023-03-18T15:16:53.449Z,62.42
2023-03-18T15:19:34.254Z,61.26
2023-03-18T15:22:06.740Z,61.38
2023-03-18T15:24:33.828Z,61.53
2023-03-18T15:29:38.804Z,61.09
2023-03-18T15:32:28.462Z,62.25
2023-03-18T15:35:26.601Z,62.16
2023-03-18T15:38:07.077Z,61.93
2023-03-18T15:40:50.105Z,61.50
2023-03-18T15:43:25.293Z,61.88
2023-03-18T15:46:00.924Z,61.91
2023-03-18T15:48:35.010Z,61.99
2023-03-18T15:51:11.243Z,62.95
2023-03-18T15:53:44.723Z,63.36
2023-03-18T15:56:45.190Z,63.60
2023-03-18T15:59:24.691Z,63.42
2023-03-18T16:01:52.749Z,63.56
2023-03-18T16:04:19.749Z,63.14
2023-03-18T16:06:46.670Z,61.80
2023-03-18T16:09:34.757Z,61.67
2023-03-18T16:12:13.033Z,62.07
2023-03-18T16:14:45.464Z,62.41
2023-03-18T16:17:19.009Z,64.16
2023-03-18T16:19:47.768Z,65.42
2023-03-18T16:22:15.302Z,65.31
2023-03-18T16:24:43.795Z,65.67
2023-03-18T16:27:37.625Z,66.67
2023-03-18T16:30:06.320Z,66.43
2023-03-18T16:32:33.136Z,66.72
2023-03-18T16:35:00.676Z,66.91
2023-03-18T16:37:27.806Z,68.05
2023-03-18T16:40:03.503Z,68.15
2023-03-18T16:42:30.255Z,68.03
2023-03-18T16:44:56.820Z,67.65
2023-03-18T16:47:27.181Z,67.82
2023-03-18T16:49:55.356Z,68.34
2023-03-18T16:52:23.434Z,68.46
2023-03-18T16:54:49.916Z,68.74
2023-03-18T16:57:20.239Z,68.68
2023-03-18T16:59:50.896Z,68.29
2023-03-18T17:02:27.700Z,69.03
2023-03-18T17:04:54.183Z,70.52
2023-03-18T17:07:20.916Z,71.74
2023-03-18T17:09:47.349Z,72.84
2023-03-18T17:12:16.114Z,74.24
2023-03-18T17:14:56.217Z,73.70
2023-03-18T17:17:33.040Z,74.16
2023-03-18T17:20:00.025Z,75.37
2023-03-18T17:22:32.625Z,76.08
2023-03-18T17:25:01.381Z,77.44
2023-03-18T17:27:34.670Z,76.82
2023-03-18T17:30:01.506Z,77.51
2023-03-18T17:32:27.994Z,78.14
2023-03-18T17:34:54.725Z,78.96
2023-03-18T17:37:21.589Z,78.98
2023-03-18T17:39:48.090Z,79.83
2023-03-18T17:42:30.187Z,79.53
2023-03-18T17:45:02.624Z,80.39
2023-03-18T17:47:29.094Z,80.90
2023-03-18T17:49:55.648Z,80.71
2023-03-18T17:52:22.212Z,80.93
2023-03-18T17:54:48.703Z,80.90
2023-03-18T17:57:16.748Z,81.11
2023-03-18T17:59:44.309Z,80.99
2023-03-18T18:02:18.126Z,80.58
2023-03-18T18:04:45.783Z,81.20
2023-03-18T18:07:25.371Z,82.04
2023-03-18T18:09:52.209Z,82.91
2023-03-18T18:12:25.001Z,82.79
2023-03-18T18:14:54.168Z,83.78
2023-03-18T18:17:20.609Z,85.00
2023-03-18T18:19:49.154Z,85.38
2023-03-18T18:22:25.915Z,85.36
2023-03-18T18:24:53.207Z,86.42
2023-03-18T18:27:19.690Z,86.05
2023-03-18T18:29:46.433Z,86.82
2023-03-18T18:32:13.244Z,87.40
2023-03-18T18:34:39.751Z,87.62
2023-03-18T18:37:08.642Z,87.96
2023-03-18T18:39:35.095Z,87.92
2023-03-18T18:42:01.603Z,87.33
2023-03-18T18:44:28.487Z,86.30
2023-03-18T18:46:55.038Z,86.80
2023-03-18T18:49:24.043Z,86.76
2023-03-18T18:51:53.629Z,86.67
2023-03-18T18:54:24.567Z,87.08
2023-03-18T18:56:52.237Z,87.22
2023-03-18T18:59:32.174Z,87.69
2023-03-18T19:02:04.410Z,88.06
2023-03-18T19:04:30.873Z,87.64
2023-03-18T19:06:58.187Z,88.73
2023-03-18T19:09:26.139Z,88.66
2023-03-18T19:11:53.650Z,89.05
2023-03-18T19:14:25.596Z,89.59
2023-03-18T19:16:56.474Z,89.38
2023-03-18T19:19:31.314Z,89.53
2023-03-18T19:21:57.973Z,90.79
2023-03-18T19:24:38.095Z,90.84
2023-03-18T19:27:13.692Z,89.96
2023-03-18T19:29:40.265Z,91.69
2023-03-18T19:32:08.217Z,91.39
2023-03-18T19:34:35.361Z,91.37
2023-03-18T19:37:04.300Z,91.87
2023-03-18T19:39:30.767Z,91.86
2023-03-18T19:41:59.705Z,91.36
2023-03-18T19:44:26.727Z,91.78
2023-03-18T19:46:55.613Z,92.60
2023-03-18T19:49:35.823Z,92.70
2023-03-18T19:52:18.840Z,92.60
2023-03-18T19:54:46.780Z,93.52
2023-03-18T19:57:18.090Z,92.80
2023-03-18T19:59:46.957Z,92.82
2023-03-18T20:02:39.898Z,93.64
2023-03-18T20:05:20.573Z,93.44
2023-03-18T20:07:49.339Z,93.46
2023-03-18T20:10:17.489Z,93.78
2023-03-18T20:12:46.717Z,92.79
2023-03-18T20:15:22.809Z,92.60
2023-03-18T20:17:50.879Z,92.00
2023-03-18T20:20:24.011Z,91.84
2023-03-18T20:22:53.871Z,91.64
2023-03-18T20:25:32.827Z,91.18
2023-03-18T20:28:00.736Z,91.77
2023-03-18T20:30:30.844Z,91.76
2023-03-18T20:32:57.502Z,92.22
2023-03-18T20:35:32.093Z,91.97
2023-03-18T20:38:03.850Z,92.25
2023-03-18T20:40:31.484Z,91.99
2023-03-18T20:42:58.215Z,92.24
2023-03-18T20:45:25.077Z,92.12
2023-03-18T20:47:51.682Z,92.34
2023-03-18T20:50:22.794Z,91.86
2023-03-18T20:52:52.305Z,91.88
2023-03-18T20:55:23.150Z,90.93
2023-03-18T20:57:49.935Z,89.96
2023-03-18T21:00:18.905Z,89.56
2023-03-18T21:02:50.038Z,88.54
2023-03-18T21:05:16.637Z,87.93
2023-03-18T21:07:43.433Z,86.15
2023-03-18T21:10:19.615Z,85.88
2023-03-18T21:12:46.944Z,84.40
2023-03-18T21:15:25.940Z,84.31
2023-03-18T21:17:52.935Z,84.97
2023-03-18T21:20:27.947Z,83.45
2023-03-18T21:22:56.094Z,83.53
2023-03-18T21:25:27.900Z,83.68
2023-03-18T21:27:55.080Z,83.69
2023-03-18T21:30:33.192Z,83.42
2023-03-18T21:32:59.725Z,83.52
2023-03-18T21:35:26.997Z,83.25
2023-03-18T21:37:53.664Z,83.73
2023-03-18T21:40:26.270Z,83.70
2023-03-18T21:42:55.702Z,82.87
2023-03-18T21:45:23.692Z,81.99
2023-03-18T21:47:52.420Z,81.36
2023-03-18T21:50:20.004Z,80.30
2023-03-18T21:52:51.631Z,80.11
2023-03-18T21:55:18.399Z,79.24
2023-03-18T21:57:47.595Z,78.86
2023-03-18T22:00:21.609Z,78.54
2023-03-18T22:02:48.839Z,77.81
2023-03-18T22:05:21.731Z,78.03
2023-03-18T22:07:50.348Z,77.48
2023-03-18T22:10:19.754Z,77.37
2023-03-18T22:12:46.285Z,76.85
2023-03-18T22:15:24.994Z,76.01
2023-03-18T22:17:52.210Z,75.66
2023-03-18T22:20:18.881Z,75.96
2023-03-18T22:22:45.407Z,75.14
2023-03-18T22:25:30.287Z,74.94
2023-03-18T22:27:58.114Z,75.35
2023-03-18T22:30:29.525Z,74.97
2023-03-18T22:32:57.605Z,74.78
2023-03-18T22:35:29.117Z,74.67
2023-03-18T22:37:56.260Z,74.86
2023-03-18T22:40:27.851Z,74.58
2023-03-18T22:42:56.870Z,74.67
2023-03-18T22:45:28.144Z,75.12
2023-03-18T22:47:57.361Z,74.96
2023-03-18T22:50:26.493Z,74.44
2023-03-18T22:53:00.823Z,73.83
2023-03-18T22:55:34.335Z,73.91
2023-03-18T22:58:01.100Z,73.67
2023-03-18T23:00:39.161Z,73.48
2023-03-18T23:03:13.889Z,73.47
2023-03-18T23:05:40.473Z,73.54
2023-03-18T23:08:06.962Z,73.45
2023-03-18T23:10:33.447Z,73.46
2023-03-18T23:13:00.043Z,73.96
2023-03-18T23:15:36.763Z,73.56
2023-03-18T23:18:03.280Z,74.30
2023-03-18T23:20:29.764Z,74.39
2023-03-18T23:22:56.307Z,74.71
2023-03-18T23:25:22.827Z,74.46
2023-03-18T23:27:51.571Z,74.34
2023-03-18T23:30:18.160Z,74.50
2023-03-18T23:32:44.611Z,74.86
2023-03-18T23:35:11.509Z,74.27
2023-03-18T23:37:37.996Z,73.77
2023-03-18T23:40:05.704Z,74.40
2023-03-18T23:42:34.382Z,74.00
2023-03-18T23:45:00.902Z,74.40
2023-03-18T23:47:27.587Z,74.29
2023-03-18T23:49:54.002Z,74.20
2023-03-18T23:52:20.574Z,74.12
2023-03-18T23:54:47.021Z,73.91
2023-03-18T23:57:15.603Z,73.75
2023-03-18T23:59:42.066Z,74.00
